Time;durP1;ratioP1;P1;durP2;ratioP2;P2;SDS_P1;SDS_P2;PMS_P1;PMS_P2;Temp;Humidity;BMP_temperature;BMP_pressure;BME280_temperature;BME280_humidity;BME280_pressure;Samples;Min_cycle;Max_cycle;Signal;HPM_P1;HPM_P2
2022/08/09 00:00:09;;;;;;;10.35;4.22;;;;;;;-148.14;100.00;65945.72;5046697;28;20027;-88
2022/08/09 00:02:34;;;;;;;5.97;3.80;;;;;;;-148.14;100.00;65945.72;5064647;28;20047;-90
2022/08/09 00:05:01;;;;;;;7.20;3.42;;;;;;;-148.14;100.00;65945.72;5066088;28;20033;-87
2022/08/09 00:07:27;;;;;;;7.88;3.92;;;;;;;-148.14;100.00;65945.72;5035971;28;20029;-90
2022/08/09 00:09:52;;;;;;;5.72;3.70;;;;;;;-148.14;100.00;65945.72;5045192;28;20044;-88
2022/08/09 00:12:22;;;;;;;9.90;4.20;;;;;;;-148.14;100.00;65945.72;5035701;28;20063;-88
2022/08/09 00:14:48;;;;;;;4.10;3.63;;;;;;;-148.14;100.00;65945.72;5047507;28;20026;-90
2022/08/09 00:17:17;;;;;;;5.90;3.50;;;;;;;-148.14;100.00;65945.72;5026095;28;20029;-89
2022/08/09 00:19:42;;;;;;;8.45;4.70;;;;;;;-148.14;100.00;65945.72;5065182;28;20031;-88
2022/08/09 00:22:08;;;;;;;6.80;3.85;;;;;;;-148.14;100.00;65945.72;5048719;28;20116;-90
2022/08/09 00:24:34;;;;;;;8.13;3.60;;;;;;;-148.14;100.00;65945.72;5030478;28;20090;-88
2022/08/09 00:27:01;;;;;;;8.02;4.13;;;;;;;-148.14;100.00;65945.72;5023119;28;20025;-87
2022/08/09 00:29:26;;;;;;;4.25;3.85;;;;;;;-148.14;100.00;65945.72;5066371;28;20029;-88
2022/08/09 00:31:55;;;;;;;4.25;3.70;;;;;;;-148.14;100.00;65945.72;5060778;28;20471;-89
2022/08/09 00:34:21;;;;;;;5.88;3.92;;;;;;;-148.14;100.00;65945.72;5065570;28;20120;-89
2022/08/09 00:36:47;;;;;;;6.95;3.50;;;;;;;-148.14;100.00;65945.72;5066317;28;20069;-89
2022/08/09 00:39:13;;;;;;;7.97;4.00;;;;;;;-148.14;100.00;65945.72;5030926;28;20051;-87
2022/08/09 00:41:39;;;;;;;3.85;3.45;;;;;;;-148.14;100.00;65945.72;5033160;28;20034;-88
2022/08/09 00:44:05;;;;;;;4.05;3.70;;;;;;;-148.14;100.00;65945.72;5030249;28;20037;-89
2022/08/09 00:46:30;;;;;;;5.15;3.85;;;;;;;-148.14;100.00;65945.72;5061469;28;20079;-87
2022/08/09 00:48:57;;;;;;;5.40;3.97;;;;;;;-148.14;100.00;65945.72;5052692;28;20037;-87
2022/08/09 00:51:22;;;;;;;5.10;4.40;;;;;;;-148.14;100.00;65945.72;5043412;28;20052;-87
2022/08/09 00:53:49;;;;;;;5.30;4.25;;;;;;;-148.14;100.00;65945.72;5044818;28;20013;-88
2022/08/09 00:56:15;;;;;;;8.60;4.40;;;;;;;-148.14;100.00;65945.72;5060896;28;20020;-89
2022/08/09 00:58:40;;;;;;;3.80;3.50;;;;;;;-148.14;100.00;65945.72;5042136;28;20037;-91
2022/08/09 01:01:20;;;;;;;3.92;3.63;;;;;;;-148.14;100.00;65945.72;5056434;28;20029;-88
2022/08/09 01:04:03;;;;;;;5.97;3.85;;;;;;;-148.14;100.00;65945.72;5033162;28;20041;-88
2022/08/09 01:06:38;;;;;;;7.20;4.03;;;;;;;-148.14;100.00;65945.72;5068682;28;20029;-88
2022/08/09 01:09:45;;;;;;;5.68;4.32;;;;;;;-148.14;100.00;65945.72;5050933;28;20044;-88
2022/08/09 01:12:28;;;;;;;5.25;3.65;;;;;;;-148.14;100.00;65945.72;4994216;28;20046;-90
2022/08/09 01:15:03;;;;;;;8.48;4.63;;;;;;;-148.14;100.00;65945.72;5067205;28;20111;-87
2022/08/09 01:17:34;;;;;;;7.78;3.90;;;;;;;-148.14;100.00;65945.72;5065591;28;20491;-87
2022/08/09 01:20:18;;;;;;;5.00;3.70;;;;;;;-148.14;100.00;65945.72;5030783;28;20039;-89
2022/08/09 01:22:47;;;;;;;4.30;3.70;;;;;;;-148.14;100.00;65945.72;5047543;28;20025;-90
2022/08/09 01:25:23;;;;;;;4.40;3.80;;;;;;;-148.14;100.00;65945.72;5046768;28;20036;-88
2022/08/09 01:27:53;;;;;;;5.28;4.10;;;;;;;-148.14;100.00;65945.72;5028247;28;20033;-88
2022/08/09 01:30:23;;;;;;;7.50;3.90;;;;;;;-148.14;100.00;65945.72;5046775;28;20029;-89
2022/08/09 01:32:51;;;;;;;7.13;3.80;;;;;;;-148.14;100.00;65945.72;5030931;28;20029;-90
2022/08/09 01:35:23;;;;;;;8.60;3.60;;;;;;;-148.14;100.00;65945.72;5044472;28;20048;-87
2022/08/09 01:37:52;;;;;;;6.95;4.00;;;;;;;-148.14;100.00;65945.72;5027333;28;20051;-90
2022/08/09 01:40:19;;;;;;;4.38;3.92;;;;;;;-148.14;100.00;65945.72;5041214;28;20031;-90
2022/08/09 01:42:47;;;;;;;8.00;4.20;;;;;;;-148.14;100.00;65945.72;5035616;28;20033;-88
2022/08/09 01:45:15;;;;;;;4.90;3.80;;;;;;;-148.14;100.00;65945.72;5063727;28;20057;-90
2022/08/09 01:47:43;;;;;;;4.72;3.75;;;;;;;-148.14;100.00;65945.72;5035116;28;20034;-89
2022/08/09 01:50:10;;;;;;;6.30;3.72;;;;;;;-148.14;100.00;65945.72;5070942;28;20029;-91
2022/08/09 01:52:37;;;;;;;7.43;4.10;;;;;;;-148.14;100.00;65945.72;5048696;28;20033;-91
2022/08/09 01:55:05;;;;;;;5.32;3.67;;;;;;;-148.14;100.00;65945.72;5044964;28;20063;-89
2022/08/09 02:01:33;;;;;;;4.47;3.42;;;;;;;-148.14;100.00;65945.72;5063375;28;20079;-89
2022/08/09 02:04:01;;;;;;;6.90;3.47;;;;;;;-148.14;100.00;65945.72;5046089;28;20419;-87
2022/08/09 02:09:15;;;;;;;6.15;4.20;;;;;;;-148.14;100.00;65945.72;5066300;28;20031;-90
2022/08/09 02:11:40;;;;;;;6.78;3.90;;;;;;;-148.14;100.00;65945.72;5047359;28;20089;-89
2022/08/09 02:14:07;;;;;;;6.60;4.00;;;;;;;-148.14;100.00;65945.72;5040154;28;20032;-89
2022/08/09 02:16:36;;;;;;;4.90;3.75;;;;;;;-148.14;100.00;65945.72;5031052;28;20063;-90
2022/08/09 02:19:03;;;;;;;3.85;3.45;;;;;;;-148.14;100.00;65945.72;5066330;28;20032;-90
2022/08/09 02:21:35;;;;;;;3.88;3.53;;;;;;;-148.14;100.00;65945.72;5048075;28;20025;-89
2022/08/09 02:24:04;;;;;;;5.45;3.78;;;;;;;-148.14;100.00;65945.72;5024945;28;20065;-90
2022/08/09 02:26:33;;;;;;;4.70;3.47;;;;;;;-148.14;100.00;65945.72;5047938;28;20028;-90
2022/08/09 02:29:08;;;;;;;4.45;3.67;;;;;;;-148.14;100.00;65945.72;5032256;28;20049;-89
2022/08/09 02:31:43;;;;;;;6.28;3.42;;;;;;;-148.14;100.00;65945.72;5030999;28;20043;-90
2022/08/09 02:34:19;;;;;;;4.88;4.38;;;;;;;-148.14;100.00;65945.72;5039656;28;20036;-89
2022/08/09 02:36:51;;;;;;;5.75;3.70;;;;;;;-148.14;100.00;65945.72;5046704;28;20104;-90
2022/08/09 02:39:42;;;;;;;5.28;3.92;;;;;;;-148.14;100.00;65945.72;5033249;28;20036;-90
2022/08/09 02:42:15;;;;;;;6.32;4.07;;;;;;;-148.14;100.00;65945.72;5040611;28;20029;-89
2022/08/09 02:44:46;;;;;;;5.40;3.72;;;;;;;-148.14;100.00;65945.72;5024349;28;20045;-90
2022/08/09 02:47:15;;;;;;;5.63;3.60;;;;;;;-148.14;100.00;65945.72;5031138;28;20108;-88
2022/08/09 02:49:51;;;;;;;7.25;3.92;;;;;;;-148.14;100.00;65945.72;5039938;28;20071;-87
2022/08/09 02:52:18;;;;;;;3.47;3.13;;;;;;;-148.14;100.00;65945.72;5047419;28;20040;-88
2022/08/09 02:54:45;;;;;;;7.28;4.05;;;;;;;-148.14;100.00;65945.72;5036758;28;20056;-89
2022/08/09 02:57:15;;;;;;;5.40;3.35;;;;;;;-148.14;100.00;65945.72;5020950;28;20033;-90
2022/08/09 02:59:44;;;;;;;6.20;4.15;;;;;;;-148.14;100.00;65945.72;5061002;28;20032;-88
2022/08/09 03:02:14;;;;;;;6.38;3.50;;;;;;;-148.14;100.00;65945.72;5035465;28;20032;-88
2022/08/09 03:04:40;;;;;;;4.57;3.15;;;;;;;-148.14;100.00;65945.72;5045144;28;20120;-90
2022/08/09 03:07:07;;;;;;;3.85;3.20;;;;;;;-148.14;100.00;65945.72;5044402;28;20053;-89
2022/08/09 03:09:34;;;;;;;3.38;3.00;;;;;;;-148.14;100.00;65945.72;5018257;28;20048;-88
2022/08/09 03:12:01;;;;;;;4.38;3.08;;;;;;;-148.14;100.00;65945.72;5035584;28;20471;-87
2022/08/09 03:14:31;;;;;;;4.78;3.35;;;;;;;-148.14;100.00;65945.72;5039843;28;20041;-87
2022/08/09 03:17:01;;;;;;;3.25;2.95;;;;;;;-148.14;100.00;65945.72;5066609;28;20040;-89
2022/08/09 03:19:30;;;;;;;4.53;3.50;;;;;;;-148.14;100.00;65945.72;5043093;28;20384;-88
2022/08/09 03:21:59;;;;;;;4.63;3.50;;;;;;;-148.14;100.00;65945.72;5067136;28;20029;-88
2022/08/09 03:24:26;;;;;;;3.58;3.28;;;;;;;-148.14;100.00;65945.72;5036917;28;20112;-88
2022/08/09 03:26:55;;;;;;;4.10;3.30;;;;;;;-148.14;100.00;65945.72;5043460;28;20048;-90
2022/08/09 03:29:24;;;;;;;5.38;3.33;;;;;;;-148.14;100.00;65945.72;5041201;28;20037;-88
2022/08/09 03:31:51;;;;;;;4.65;3.25;;;;;;;-148.14;100.00;65945.72;5044887;28;20036;-89
2022/08/09 03:34:19;;;;;;;5.35;3.40;;;;;;;-148.14;100.00;65945.72;5038607;28;20068;-86
2022/08/09 03:36:49;;;;;;;4.38;3.13;;;;;;;-148.14;100.00;65945.72;5047706;28;20509;-88
2022/08/09 03:39:16;;;;;;;5.85;3.47;;;;;;;-148.14;100.00;65945.72;5048732;28;20395;-89
2022/08/09 03:41:42;;;;;;;3.30;3.00;;;;;;;-148.14;100.00;65945.72;5043837;28;20048;-87
2022/08/09 03:44:07;;;;;;;4.47;2.80;;;;;;;-148.14;100.00;65945.72;5063421;28;20111;-89
2022/08/09 03:46:34;;;;;;;3.55;3.17;;;;;;;-148.14;100.00;65945.72;5048682;28;20066;-90
2022/08/09 03:49:02;;;;;;;5.25;3.13;;;;;;;-148.14;100.00;65945.72;5062308;28;20028;-86
2022/08/09 03:51:29;;;;;;;5.13;3.28;;;;;;;-148.14;100.00;65945.72;5035746;28;20037;-88
2022/08/09 03:53:55;;;;;;;3.28;2.85;;;;;;;-148.14;100.00;65945.72;5043237;28;20137;-87
2022/08/09 03:56:21;;;;;;;3.42;2.90;;;;;;;-148.14;100.00;65945.72;5022318;28;20025;-88
2022/08/09 03:58:47;;;;;;;4.38;3.13;;;;;;;-148.14;100.00;65945.72;5034420;28;20495;-89
2022/08/09 04:01:13;;;;;;;9.18;3.30;;;;;;;-148.14;100.00;65945.72;5043972;28;20058;-87
2022/08/09 04:03:40;;;;;;;5.00;3.10;;;;;;;-148.14;100.00;65945.72;5061422;28;20025;-90
2022/08/09 04:06:06;;;;;;;5.80;3.28;;;;;;;-148.14;100.00;65945.72;5041941;28;20029;-87
2022/08/09 04:08:32;;;;;;;6.50;2.97;;;;;;;-148.14;100.00;65945.72;5034983;28;20052;-87
2022/08/09 04:10:58;;;;;;;3.38;2.90;;;;;;;-148.14;100.00;65945.72;5064567;28;20033;-87
2022/08/09 04:13:23;;;;;;;4.22;3.20;;;;;;;-148.14;100.00;65945.72;5037392;28;20025;-90
2022/08/09 04:15:49;;;;;;;3.15;2.70;;;;;;;-148.14;100.00;65945.72;5066466;28;20029;-87
2022/08/09 04:18:14;;;;;;;5.25;3.00;;;;;;;-148.14;100.00;65945.72;5046942;28;20032;-87
2022/08/09 04:20:40;;;;;;;5.80;3.65;;;;;;;-148.14;100.00;65945.72;5046601;28;20028;-89
2022/08/09 04:23:07;;;;;;;5.65;3.08;;;;;;;-148.14;100.00;65945.72;5063271;28;20037;-89
2022/08/09 04:25:34;;;;;;;4.18;2.83;;;;;;;-148.14;100.00;65945.72;5064545;28;20063;-89
2022/08/09 04:28:02;;;;;;;4.18;3.22;;;;;;;-148.14;100.00;65945.72;5064535;28;20028;-89
2022/08/09 04:30:28;;;;;;;4.38;3.17;;;;;;;-148.14;100.00;65945.72;5063174;28;20108;-86
2022/08/09 04:32:54;;;;;;;5.63;3.10;;;;;;;-148.14;100.00;65945.72;5061547;28;20052;-88
2022/08/09 04:35:19;;;;;;;3.35;2.90;;;;;;;-148.14;100.00;65945.72;5061690;28;20036;-90
2022/08/09 04:37:45;;;;;;;3.30;3.00;;;;;;;-148.14;100.00;65945.72;5037891;28;20029;-89
2022/08/09 04:40:11;;;;;;;4.70;3.17;;;;;;;-148.14;100.00;65945.72;5034468;28;20043;-86
2022/08/09 04:42:37;;;;;;;6.50;3.53;;;;;;;-148.14;100.00;65945.72;5058948;28;20071;-87
2022/08/09 04:45:03;;;;;;;3.78;2.75;;;;;;;-148.14;100.00;65945.72;5019070;28;20399;-87
2022/08/09 04:47:29;;;;;;;2.88;2.53;;;;;;;-148.14;100.00;65945.72;5039740;28;20039;-86
2022/08/09 04:49:55;;;;;;;3.42;2.63;;;;;;;-148.14;100.00;65945.72;5022515;28;20029;-86
2022/08/09 04:52:27;;;;;;;4.32;2.80;;;;;;;-148.14;100.00;65945.72;5056060;28;20487;-86
2022/08/09 04:54:54;;;;;;;4.10;2.70;;;;;;;-148.14;100.00;65945.72;5053632;28;20035;-86
2022/08/09 04:57:20;;;;;;;3.85;2.50;;;;;;;-148.14;100.00;65945.72;5025948;28;20033;-85
2022/08/09 04:59:46;;;;;;;6.30;2.60;;;;;;;-148.14;100.00;65945.72;5052964;28;20052;-86
2022/08/09 05:02:13;;;;;;;2.90;2.40;;;;;;;-148.14;100.00;65945.72;5011861;28;20071;-88
2022/08/09 05:04:39;;;;;;;4.07;2.78;;;;;;;-148.14;100.00;65945.72;5029917;28;20099;-86
2022/08/09 05:07:04;;;;;;;3.17;2.72;;;;;;;-148.14;100.00;65945.72;5031710;28;20029;-86
2022/08/09 05:09:30;;;;;;;3.47;2.50;;;;;;;-148.14;100.00;65945.72;5056134;28;20033;-88
2022/08/09 05:11:57;;;;;;;2.65;2.45;;;;;;;-148.14;100.00;65945.72;5027723;28;20071;-88
2022/08/09 05:14:23;;;;;;;4.13;2.60;;;;;;;-148.14;100.00;65945.72;5010396;28;20037;-86
2022/08/09 05:16:49;;;;;;;3.78;2.78;;;;;;;-148.14;100.00;65945.72;5053725;28;20034;-86
2022/08/09 05:19:16;;;;;;;5.30;2.63;;;;;;;-148.14;100.00;65945.72;5056210;28;20037;-86
2022/08/09 05:21:43;;;;;;;4.30;2.22;;;;;;;-148.14;100.00;65945.72;5057637;28;20028;-88
2022/08/09 05:24:08;;;;;;;7.30;3.00;;;;;;;-148.14;100.00;65945.72;5041867;28;20029;-88
2022/08/09 05:26:36;;;;;;;3.20;2.45;;;;;;;-148.14;100.00;65945.72;5054132;28;20033;-87
2022/08/09 05:29:02;;;;;;;3.83;2.65;;;;;;;-148.14;100.00;65945.72;5057208;28;20111;-89
2022/08/09 05:31:28;;;;;;;3.38;2.65;;;;;;;-148.14;100.00;65945.72;5060141;28;20079;-86
2022/08/09 05:33:53;;;;;;;3.00;2.60;;;;;;;-148.14;100.00;65945.72;5039256;28;20372;-89
2022/08/09 05:36:19;;;;;;;3.92;2.40;;;;;;;-148.14;100.00;65945.72;5057798;28;20082;-86
2022/08/09 05:38:44;;;;;;;5.55;2.60;;;;;;;-148.14;100.00;65945.72;5061033;28;20084;-89
2022/08/09 05:41:10;;;;;;;3.63;2.60;;;;;;;-148.14;100.00;65945.72;5029832;28;20029;-89
2022/08/09 05:43:36;;;;;;;3.05;2.47;;;;;;;-148.14;100.00;65945.72;5051152;28;20029;-88
2022/08/09 05:46:02;;;;;;;5.20;3.15;;;;;;;-148.14;100.00;65945.72;5035801;28;20028;-88
2022/08/09 05:48:28;;;;;;;3.42;3.10;;;;;;;-148.14;100.00;65945.72;5042712;28;20033;-88
2022/08/09 05:50:54;;;;;;;4.90;3.30;;;;;;;-148.14;100.00;65945.72;5055899;28;20052;-88
2022/08/09 05:53:20;;;;;;;4.20;3.28;;;;;;;-148.14;100.00;65945.72;5034567;28;20033;-89
2022/08/09 05:55:46;;;;;;;6.05;3.42;;;;;;;-148.14;100.00;65945.72;5062478;28;20059;-88
2022/08/09 05:58:12;;;;;;;4.65;3.67;;;;;;;-148.14;100.00;65945.72;5059653;28;20029;-88
2022/08/09 06:00:37;;;;;;;4.90;3.97;;;;;;;-148.14;100.00;65945.72;5030591;28;20033;-86
2022/08/09 06:03:03;;;;;;;4.80;3.72;;;;;;;-148.14;100.00;65945.72;5036850;28;20028;-87
2022/08/09 06:05:32;;;;;;;6.90;3.88;;;;;;;-148.14;100.00;65945.72;5054263;28;20480;-87
2022/08/09 06:07:58;;;;;;;3.45;2.70;;;;;;;-148.14;100.00;65945.72;5039481;28;20037;-87
2022/08/09 06:10:39;;;;;;;4.10;2.25;;;;;;;-148.14;100.00;65945.72;5025376;28;20036;-87
2022/08/09 06:13:11;;;;;;;3.17;2.35;;;;;;;-148.14;100.00;65945.72;5030254;28;20025;-87
2022/08/09 06:15:38;;;;;;;3.05;2.63;;;;;;;-148.14;100.00;65945.72;5026189;28;20551;-90
2022/08/09 06:18:04;;;;;;;4.18;2.83;;;;;;;-148.14;100.00;65945.72;5035977;28;20117;-87
2022/08/09 06:20:33;;;;;;;3.78;3.00;;;;;;;-148.14;100.00;65945.72;5056994;28;20045;-88
2022/08/09 06:22:59;;;;;;;4.93;2.70;;;;;;;-148.14;100.00;65945.72;5040490;28;20539;-87
2022/08/09 06:25:25;;;;;;;4.18;2.75;;;;;;;-148.14;100.00;65945.72;5057432;28;20124;-90
2022/08/09 06:27:51;;;;;;;4.20;2.92;;;;;;;-148.14;100.00;65945.72;5051383;28;20035;-87
2022/08/09 06:30:16;;;;;;;4.97;2.95;;;;;;;-148.14;100.00;65945.72;5045270;28;20025;-89
2022/08/09 06:32:43;;;;;;;3.65;2.90;;;;;;;-148.14;100.00;65945.72;5041700;28;20498;-90
2022/08/09 06:35:09;;;;;;;5.63;3.60;;;;;;;-148.14;100.00;65945.72;5032477;28;20032;-91
2022/08/09 06:37:36;;;;;;;4.18;3.20;;;;;;;-148.14;100.00;65945.72;5063373;28;20391;-89
2022/08/09 06:40:03;;;;;;;7.32;3.10;;;;;;;-148.14;100.00;65945.72;5029253;28;20093;-90
2022/08/09 06:42:29;;;;;;;4.07;3.28;;;;;;;-148.14;100.00;65945.72;5037463;28;20025;-91
2022/08/09 06:44:55;;;;;;;6.10;3.45;;;;;;;-148.14;100.00;65945.72;5061648;28;20060;-89
2022/08/09 06:47:21;;;;;;;4.15;2.97;;;;;;;-148.14;100.00;65945.72;5050816;28;20024;-89
2022/08/09 06:49:47;;;;;;;3.92;3.00;;;;;;;-148.14;100.00;65945.72;5056356;28;20032;-85
2022/08/09 06:52:13;;;;;;;2.90;2.70;;;;;;;-148.14;100.00;65945.72;5036666;28;20493;-84
2022/08/09 06:54:39;;;;;;;4.40;3.03;;;;;;;-148.14;100.00;65945.72;5016435;28;20025;-86
2022/08/09 06:57:04;;;;;;;3.45;2.72;;;;;;;-148.14;100.00;65945.72;5052629;28;20056;-86
2022/08/09 06:59:30;;;;;;;7.25;3.13;;;;;;;-148.14;100.00;65945.72;5047769;28;20051;-85
2022/08/09 07:01:56;;;;;;;4.78;2.72;;;;;;;-148.14;100.00;65945.72;5052107;28;20470;-86
2022/08/09 07:04:22;;;;;;;4.68;3.30;;;;;;;-148.14;100.00;65945.72;5052699;28;20053;-87
2022/08/09 07:06:47;;;;;;;3.58;2.90;;;;;;;-148.14;100.00;65945.72;5056539;28;20372;-87
2022/08/09 07:09:13;;;;;;;6.07;3.05;;;;;;;-148.14;100.00;65945.72;5058153;28;20021;-87
2022/08/09 07:11:39;;;;;;;5.78;3.53;;;;;;;-148.14;100.00;65945.72;5060246;28;20028;-87
2022/08/09 07:14:04;;;;;;;5.75;3.08;;;;;;;-148.14;100.00;65945.72;5057495;28;20446;-87
2022/08/09 07:16:30;;;;;;;4.50;3.30;;;;;;;-148.14;100.00;65945.72;5060789;28;20033;-90
2022/08/09 07:18:55;;;;;;;7.35;3.75;;;;;;;-148.14;100.00;65945.72;5061282;28;20036;-85
2022/08/09 07:21:21;;;;;;;6.03;3.80;;;;;;;-148.14;100.00;65945.72;5059857;28;20029;-85
2022/08/09 07:23:47;;;;;;;7.20;3.40;;;;;;;-148.14;100.00;65945.72;5030340;28;20029;-89
2022/08/09 07:26:13;;;;;;;6.28;4.20;;;;;;;-148.14;100.00;65945.72;5035071;28;20021;-88
2022/08/09 07:28:40;;;;;;;5.10;3.20;;;;;;;-148.14;100.00;65945.72;5015168;28;20083;-84
2022/08/09 07:31:05;;;;;;;5.53;3.38;;;;;;;-148.14;100.00;65945.72;5024383;28;20376;-86
2022/08/09 07:33:31;;;;;;;5.72;2.95;;;;;;;-148.14;100.00;65945.72;5037404;28;20033;-88
2022/08/09 07:36:00;;;;;;;5.03;3.10;;;;;;;-148.14;100.00;65945.72;5052886;28;20030;-88
2022/08/09 07:38:26;;;;;;;5.50;3.40;;;;;;;-148.14;100.00;65945.72;5048830;28;20072;-87
2022/08/09 07:40:53;;;;;;;5.10;3.00;;;;;;;-148.14;100.00;65945.72;5036028;28;20029;-87
2022/08/09 07:43:18;;;;;;;5.03;2.80;;;;;;;-148.14;100.00;65945.72;5059753;28;20497;-88
2022/08/09 07:45:44;;;;;;;3.85;3.38;;;;;;;-148.14;100.00;65945.72;5026572;28;20064;-89
2022/08/09 07:48:11;;;;;;;4.88;3.15;;;;;;;-148.14;100.00;65945.72;5046787;28;20020;-88
2022/08/09 07:50:39;;;;;;;5.95;3.30;;;;;;;-148.14;100.00;65945.72;5040042;28;20452;-87
2022/08/09 07:53:06;;;;;;;3.72;3.20;;;;;;;-148.14;100.00;65945.72;5032234;28;20111;-89
2022/08/09 07:55:33;;;;;;;4.45;3.72;;;;;;;-148.14;100.00;65945.72;5068023;28;20048;-87
2022/08/09 07:57:59;;;;;;;4.60;3.30;;;;;;;-148.14;100.00;65945.72;5074908;28;20033;-87
2022/08/09 08:00:24;;;;;;;6.50;3.15;;;;;;;-148.14;100.00;65945.72;5048555;28;20019;-86
2022/08/09 08:02:50;;;;;;;3.50;3.20;;;;;;;-148.14;100.00;65945.72;5072517;28;20041;-87
2022/08/09 08:05:17;;;;;;;6.00;3.20;;;;;;;-148.14;100.00;65945.72;5072216;28;20056;-86
2022/08/09 08:07:46;;;;;;;3.38;3.08;;;;;;;-148.14;100.00;65945.72;5045681;28;20037;-85
2022/08/09 08:10:11;;;;;;;9.20;4.10;;;;;;;-148.14;100.00;65945.72;5055601;28;20040;-86
2022/08/09 08:12:39;;;;;;;7.38;3.58;;;;;;;-148.14;100.00;65945.72;5055126;28;20025;-87
2022/08/09 08:15:07;;;;;;;6.53;3.85;;;;;;;-148.14;100.00;65945.72;5070486;28;20068;-85
2022/08/09 08:17:32;;;;;;;4.65;3.65;;;;;;;-148.14;100.00;65945.72;5067012;28;20037;-88
2022/08/09 08:19:58;;;;;;;5.25;3.60;;;;;;;-148.14;100.00;65945.72;5074994;28;20090;-86
2022/08/09 08:22:26;;;;;;;4.80;3.28;;;;;;;-148.14;100.00;65945.72;5033216;28;20029;-84
2022/08/09 08:24:54;;;;;;;4.43;3.63;;;;;;;-148.14;100.00;65945.72;5056062;28;20047;-85
2022/08/09 08:27:24;;;;;;;4.25;3.85;;;;;;;-148.14;100.00;65945.72;5052253;28;20016;-86
2022/08/09 08:29:50;;;;;;;7.18;3.80;;;;;;;-148.14;100.00;65945.72;5061174;28;20060;-86
2022/08/09 08:32:18;;;;;;;6.90;3.90;;;;;;;-148.14;100.00;65945.72;5061824;28;20025;-86
2022/08/09 08:34:44;;;;;;;6.47;4.18;;;;;;;-148.14;100.00;65945.72;5040319;28;20029;-86
2022/08/09 08:37:10;;;;;;;8.68;3.50;;;;;;;-148.14;100.00;65945.72;5035063;28;20041;-85
2022/08/09 08:39:35;;;;;;;6.55;3.70;;;;;;;-148.14;100.00;65945.72;5054796;28;20415;-84
2022/08/09 08:42:01;;;;;;;7.78;4.00;;;;;;;-148.14;100.00;65945.72;5031179;28;20029;-84
2022/08/09 08:44:28;;;;;;;5.78;3.42;;;;;;;-148.14;100.00;65945.72;5053643;28;20094;-84
2022/08/09 08:46:54;;;;;;;6.43;3.78;;;;;;;-148.14;100.00;65945.72;5026488;28;20541;-84
2022/08/09 08:49:21;;;;;;;4.25;3.03;;;;;;;-148.14;100.00;65945.72;5054894;28;20031;-85
2022/08/09 08:51:48;;;;;;;8.15;3.78;;;;;;;-148.14;100.00;65945.72;5053971;28;20041;-82
2022/08/09 08:54:14;;;;;;;5.60;3.47;;;;;;;-148.14;100.00;65945.72;5053361;28;20029;-83
2022/08/09 08:56:42;;;;;;;6.40;3.72;;;;;;;-148.14;100.00;65945.72;5041694;28;20102;-85
2022/08/09 08:59:12;;;;;;;4.70;3.45;;;;;;;-148.14;100.00;65945.72;5051342;28;20036;-84
2022/08/09 09:01:42;;;;;;;7.28;3.60;;;;;;;-148.14;100.00;65945.72;5051340;28;20125;-85
2022/08/09 09:04:10;;;;;;;7.50;3.70;;;;;;;-148.14;100.00;65945.72;5033340;28;20045;-85
2022/08/09 09:06:38;;;;;;;8.35;3.90;;;;;;;-148.14;100.00;65945.72;5011730;28;20032;-85
2022/08/09 09:09:05;;;;;;;7.10;4.00;;;;;;;-148.14;100.00;65945.72;5051298;28;20116;-86
2022/08/09 09:11:34;;;;;;;6.05;3.72;;;;;;;-148.14;100.00;65945.72;5034485;28;20051;-85
2022/08/09 09:14:02;;;;;;;6.85;4.15;;;;;;;-148.14;100.00;65945.72;5016242;28;20479;-85
2022/08/09 09:16:30;;;;;;;4.22;3.55;;;;;;;-148.14;100.00;65945.72;5034128;28;20068;-84
2022/08/09 09:18:55;;;;;;;5.45;3.80;;;;;;;-148.14;100.00;65945.72;5027822;28;20032;-85
2022/08/09 09:21:21;;;;;;;6.30;4.10;;;;;;;-148.14;100.00;65945.72;5052062;28;20501;-86
2022/08/09 09:23:47;;;;;;;7.93;3.90;;;;;;;-148.14;100.00;65945.72;5022168;28;20099;-85
2022/08/09 09:26:14;;;;;;;6.03;3.97;;;;;;;-148.14;100.00;65945.72;5051575;28;20043;-85
2022/08/09 09:28:46;;;;;;;6.25;4.10;;;;;;;-148.14;100.00;65945.72;5029107;28;20037;-84
2022/08/09 09:31:15;;;;;;;6.65;4.38;;;;;;;-148.14;100.00;65945.72;5050804;28;20028;-85
2022/08/09 09:33:40;;;;;;;4.43;3.70;;;;;;;-148.14;100.00;65945.72;5052073;28;20040;-84
2022/08/09 09:36:08;;;;;;;6.28;4.57;;;;;;;-148.14;100.00;65945.72;5025102;28;20029;-87
2022/08/09 09:38:41;;;;;;;7.53;3.92;;;;;;;-148.14;100.00;65945.72;5051544;28;20025;-83
2022/08/09 09:41:07;;;;;;;6.63;4.10;;;;;;;-148.14;100.00;65945.72;5043067;28;20035;-86
2022/08/09 09:43:33;;;;;;;5.15;4.68;;;;;;;-148.14;100.00;65945.72;5051510;28;20048;-85
2022/08/09 09:46:01;;;;;;;7.00;4.93;;;;;;;-148.14;100.00;65945.72;5051705;28;20775;-84
2022/08/09 09:48:30;;;;;;;5.47;4.50;;;;;;;-148.14;100.00;65945.72;5051036;28;20029;-84
2022/08/09 09:50:57;;;;;;;7.50;4.53;;;;;;;-148.14;100.00;65945.72;5032011;28;20024;-85
2022/08/09 09:53:26;;;;;;;6.50;4.63;;;;;;;-148.14;100.00;65945.72;5049979;28;20047;-83
2022/08/09 09:55:56;;;;;;;9.90;4.82;;;;;;;-148.14;100.00;65945.72;5027750;28;20120;-84
2022/08/09 09:58:22;;;;;;;5.90;4.53;;;;;;;-148.14;100.00;65945.72;5026679;28;20120;-83
2022/08/09 10:00:54;;;;;;;4.13;3.72;;;;;;;-148.14;100.00;65945.72;5022380;28;20503;-85
2022/08/09 10:03:37;;;;;;;5.95;4.20;;;;;;;-148.14;100.00;65945.72;5033341;28;20033;-84
2022/08/09 10:06:04;;;;;;;4.53;3.83;;;;;;;-148.14;100.00;65945.72;5022639;28;20155;-84
2022/08/09 10:08:30;;;;;;;11.00;4.47;;;;;;;-148.14;100.00;65945.72;5037617;28;20384;-85
2022/08/09 10:10:55;;;;;;;4.70;4.25;;;;;;;-148.14;100.00;65945.72;5037057;28;20032;-83
2022/08/09 10:13:21;;;;;;;4.75;4.13;;;;;;;-148.14;100.00;65945.72;5040654;28;20035;-84
2022/08/09 10:15:51;;;;;;;5.57;4.32;;;;;;;-148.14;100.00;65945.72;5026147;28;20123;-84
2022/08/09 10:18:17;;;;;;;4.63;4.00;;;;;;;-148.14;100.00;65945.72;5041400;28;20498;-85
2022/08/09 10:20:43;;;;;;;4.80;4.40;;;;;;;-148.14;100.00;65945.72;5025847;28;20025;-83
2022/08/09 10:23:21;;;;;;;5.22;4.47;;;;;;;-148.14;100.00;65945.72;5038577;28;20101;-84
2022/08/09 10:25:48;;;;;;;5.22;4.07;;;;;;;-148.14;100.00;65945.72;5039776;28;20034;-85
2022/08/09 10:28:13;;;;;;;5.38;3.92;;;;;;;-148.14;100.00;65945.72;5040335;28;20059;-85
2022/08/09 10:30:40;;;;;;;5.80;4.20;;;;;;;-148.14;100.00;65945.72;5025873;28;20086;-86
2022/08/09 10:33:07;;;;;;;7.78;4.55;;;;;;;-148.14;100.00;65945.72;5042686;28;20082;-84
2022/08/09 10:35:34;;;;;;;4.72;3.92;;;;;;;-148.14;100.00;65945.72;5041171;28;20064;-85
2022/08/09 10:38:00;;;;;;;5.30;4.35;;;;;;;-148.14;100.00;65945.72;5020333;28;20021;-85
2022/08/09 10:40:27;;;;;;;4.32;3.92;;;;;;;-148.14;100.00;65945.72;5037880;28;20033;-83
2022/08/09 10:42:53;;;;;;;4.15;3.75;;;;;;;-148.14;100.00;65945.72;5026569;28;20033;-85
2022/08/09 10:45:20;;;;;;;4.47;3.92;;;;;;;-148.14;100.00;65945.72;5023858;28;20056;-85
2022/08/09 10:47:52;;;;;;;4.07;3.40;;;;;;;-148.14;100.00;65945.72;5009231;28;20471;-84
2022/08/09 10:50:21;;;;;;;3.90;3.60;;;;;;;-148.14;100.00;65945.72;5047604;28;20170;-84
2022/08/09 10:53:32;;;;;;;5.30;3.47;;;;;;;-148.14;100.00;65945.72;5026528;28;20071;-85
2022/08/09 10:56:18;;;;;;;3.90;3.60;;;;;;;-148.14;100.00;65945.72;4992369;28;20057;-85
2022/08/09 10:58:44;;;;;;;7.18;3.97;;;;;;;-148.14;100.00;65945.72;4977245;28;20053;-84
2022/08/09 11:01:31;;;;;;;5.18;3.60;;;;;;;-148.14;100.00;65945.72;5023367;28;20041;-86
2022/08/09 11:04:17;;;;;;;4.45;3.45;;;;;;;-148.14;100.00;65945.72;5049705;28;20045;-86
2022/08/09 11:06:44;;;;;;;3.22;3.03;;;;;;;-148.14;100.00;65945.72;5031976;28;20124;-84
2022/08/09 11:09:14;;;;;;;3.42;3.20;;;;;;;-148.14;100.00;65945.72;5054149;28;20043;-85
2022/08/09 11:11:53;;;;;;;4.68;3.33;;;;;;;-148.14;100.00;65945.72;5051644;28;20029;-85
2022/08/09 11:14:43;;;;;;;7.28;3.15;;;;;;;-148.14;100.00;65945.72;5053421;28;20537;-84
2022/08/09 11:17:11;;;;;;;5.25;3.20;;;;;;;-148.14;100.00;65945.72;5054075;28;20036;-86
2022/08/09 11:20:06;;;;;;;3.80;3.42;;;;;;;-148.14;100.00;65945.72;5054556;28;20098;-85